sensor_id;sensor_type;location;lat;lon;timestamp;temperature;humidity
33105;DHT22;19476;51.448;6.674;2023-05-10T00:00:16;18.70;64.50
33105;DHT22;19476;51.448;6.674;2023-05-10T00:02:43;18.60;64.30
33105;DHT22;19476;51.448;6.674;2023-05-10T00:05:09;18.70;64.40
33105;DHT22;19476;51.448;6.674;2023-05-10T00:07:35;18.70;64.40
33105;DHT22;19476;51.448;6.674;2023-05-10T00:10:00;18.60;64.20
33105;DHT22;19476;51.448;6.674;2023-05-10T00:12:30;18.70;64.00
33105;DHT22;19476;51.448;6.674;2023-05-10T00:14:56;18.60;63.90
33105;DHT22;19476;51.448;6.674;2023-05-10T00:17:22;18.70;63.70
33105;DHT22;19476;51.448;6.674;2023-05-10T00:19:48;18.60;63.60
33105;DHT22;19476;51.448;6.674;2023-05-10T00:22:14;18.60;63.40
33105;DHT22;19476;51.448;6.674;2023-05-10T00:24:40;18.60;63.40
33105;DHT22;19476;51.448;6.674;2023-05-10T00:27:07;18.60;63.60
33105;DHT22;19476;51.448;6.674;2023-05-10T00:29:33;18.60;63.70
33105;DHT22;19476;51.448;6.674;2023-05-10T00:32:00;18.70;63.70
33105;DHT22;19476;51.448;6.674;2023-05-10T00:34:26;18.70;63.60
33105;DHT22;19476;51.448;6.674;2023-05-10T00:37:01;18.60;63.40
33105;DHT22;19476;51.448;6.674;2023-05-10T00:39:27;18.70;63.50
33105;DHT22;19476;51.448;6.674;2023-05-10T00:41:54;18.60;63.30
33105;DHT22;19476;51.448;6.674;2023-05-10T00:44:23;18.60;63.30
33105;DHT22;19476;51.448;6.674;2023-05-10T00:46:56;18.60;63.30
33105;DHT22;19476;51.448;6.674;2023-05-10T00:49:22;18.70;63.30
33105;DHT22;19476;51.448;6.674;2023-05-10T00:51:48;18.70;63.30
33105;DHT22;19476;51.448;6.674;2023-05-10T00:54:16;18.70;63.30
33105;DHT22;19476;51.448;6.674;2023-05-10T00:56:42;18.70;63.20
33105;DHT22;19476;51.448;6.674;2023-05-10T00:59:15;18.70;63.10
33105;DHT22;19476;51.448;6.674;2023-05-10T01:01:42;18.70;63.10
33105;DHT22;19476;51.448;6.674;2023-05-10T01:04:11;18.70;63.00
33105;DHT22;19476;51.448;6.674;2023-05-10T01:06:39;18.70;63.00
33105;DHT22;19476;51.448;6.674;2023-05-10T01:09:05;18.70;62.90
33105;DHT22;19476;51.448;6.674;2023-05-10T01:11:36;18.70;62.70
33105;DHT22;19476;51.448;6.674;2023-05-10T01:14:02;18.70;62.70
33105;DHT22;19476;51.448;6.674;2023-05-10T01:16:38;18.70;62.80
33105;DHT22;19476;51.448;6.674;2023-05-10T01:19:22;18.70;63.10
33105;DHT22;19476;51.448;6.674;2023-05-10T01:34:15;18.70;63.30
33105;DHT22;19476;51.448;6.674;2023-05-10T01:37:15;18.70;62.80
33105;DHT22;19476;51.448;6.674;2023-05-10T01:39:47;18.70;63.00
33105;DHT22;19476;51.448;6.674;2023-05-10T01:42:23;18.70;62.70
33105;DHT22;19476;51.448;6.674;2023-05-10T01:45:31;18.70;62.70
33105;DHT22;19476;51.448;6.674;2023-05-10T01:48:11;18.70;62.70
33105;DHT22;19476;51.448;6.674;2023-05-10T01:50:44;18.80;62.70
33105;DHT22;19476;51.448;6.674;2023-05-10T01:53:13;18.80;62.70
33105;DHT22;19476;51.448;6.674;2023-05-10T01:55:51;18.80;62.60
33105;DHT22;19476;51.448;6.674;2023-05-10T01:58:37;18.80;62.70
33105;DHT22;19476;51.448;6.674;2023-05-10T02:01:04;18.80;62.80
33105;DHT22;19476;51.448;6.674;2023-05-10T02:03:32;18.80;62.50
33105;DHT22;19476;51.448;6.674;2023-05-10T02:06:00;18.90;62.60
33105;DHT22;19476;51.448;6.674;2023-05-10T02:08:26;18.90;62.50
33105;DHT22;19476;51.448;6.674;2023-05-10T02:10:55;18.90;62.50
33105;DHT22;19476;51.448;6.674;2023-05-10T02:13:23;18.90;62.50
33105;DHT22;19476;51.448;6.674;2023-05-10T02:15:51;18.90;62.30
33105;DHT22;19476;51.448;6.674;2023-05-10T02:18:18;18.90;62.20
33105;DHT22;19476;51.448;6.674;2023-05-10T02:20:46;18.90;62.30
33105;DHT22;19476;51.448;6.674;2023-05-10T02:23:13;18.90;63.00
33105;DHT22;19476;51.448;6.674;2023-05-10T02:25:41;18.90;62.30
33105;DHT22;19476;51.448;6.674;2023-05-10T02:28:12;19.00;62.30
33105;DHT22;19476;51.448;6.674;2023-05-10T02:30:38;18.90;62.20
33105;DHT22;19476;51.448;6.674;2023-05-10T02:33:07;19.00;62.20
33105;DHT22;19476;51.448;6.674;2023-05-10T02:35:34;18.90;62.10
33105;DHT22;19476;51.448;6.674;2023-05-10T02:38:04;18.90;62.10
33105;DHT22;19476;51.448;6.674;2023-05-10T02:40:32;19.00;62.20
33105;DHT22;19476;51.448;6.674;2023-05-10T02:42:59;19.00;62.20
33105;DHT22;19476;51.448;6.674;2023-05-10T02:45:32;19.00;62.10
33105;DHT22;19476;51.448;6.674;2023-05-10T02:48:00;19.00;62.20
33105;DHT22;19476;51.448;6.674;2023-05-10T02:50:28;18.90;62.00
33105;DHT22;19476;51.448;6.674;2023-05-10T02:53:01;19.00;62.30
33105;DHT22;19476;51.448;6.674;2023-05-10T02:55:38;19.00;62.20
33105;DHT22;19476;51.448;6.674;2023-05-10T02:58:06;19.00;62.20
33105;DHT22;19476;51.448;6.674;2023-05-10T03:00:32;19.00;62.20
33105;DHT22;19476;51.448;6.674;2023-05-10T03:03:01;19.00;62.20
33105;DHT22;19476;51.448;6.674;2023-05-10T03:05:33;19.00;62.20
33105;DHT22;19476;51.448;6.674;2023-05-10T03:07:59;19.00;62.10
33105;DHT22;19476;51.448;6.674;2023-05-10T03:10:30;19.00;62.10
33105;DHT22;19476;51.448;6.674;2023-05-10T03:13:16;18.90;62.10
33105;DHT22;19476;51.448;6.674;2023-05-10T03:15:59;18.90;62.10
33105;DHT22;19476;51.448;6.674;2023-05-10T03:18:42;18.90;62.00
33105;DHT22;19476;51.448;6.674;2023-05-10T03:21:17;19.00;62.10
33105;DHT22;19476;51.448;6.674;2023-05-10T03:23:51;18.90;62.10
33105;DHT22;19476;51.448;6.674;2023-05-10T03:26:40;18.90;62.20
33105;DHT22;19476;51.448;6.674;2023-05-10T03:29:06;18.90;62.60
33105;DHT22;19476;51.448;6.674;2023-05-10T03:31:33;18.90;62.20
33105;DHT22;19476;51.448;6.674;2023-05-10T03:34:22;18.90;62.20
33105;DHT22;19476;51.448;6.674;2023-05-10T03:37:17;18.90;63.00
33105;DHT22;19476;51.448;6.674;2023-05-10T03:39:43;18.90;62.70
33105;DHT22;19476;51.448;6.674;2023-05-10T03:42:36;18.90;62.10
33105;DHT22;19476;51.448;6.674;2023-05-10T03:45:43;18.90;62.40
33105;DHT22;19476;51.448;6.674;2023-05-10T03:48:24;18.90;62.80
33105;DHT22;19476;51.448;6.674;2023-05-10T03:51:05;18.90;62.10
33105;DHT22;19476;51.448;6.674;2023-05-10T03:53:54;18.90;62.30
33105;DHT22;19476;51.448;6.674;2023-05-10T03:56:20;18.90;62.50
33105;DHT22;19476;51.448;6.674;2023-05-10T03:58:49;18.90;62.20
33105;DHT22;19476;51.448;6.674;2023-05-10T04:01:18;18.90;62.40
33105;DHT22;19476;51.448;6.674;2023-05-10T04:03:44;18.80;62.40
33105;DHT22;19476;51.448;6.674;2023-05-10T04:06:10;18.90;62.30
33105;DHT22;19476;51.448;6.674;2023-05-10T04:18:22;18.80;62.60
33105;DHT22;19476;51.448;6.674;2023-05-10T04:21:13;18.90;62.40
33105;DHT22;19476;51.448;6.674;2023-05-10T04:23:39;18.90;62.80
33105;DHT22;19476;51.448;6.674;2023-05-10T04:26:05;18.90;62.50
33105;DHT22;19476;51.448;6.674;2023-05-10T04:29:06;18.90;62.40
33105;DHT22;19476;51.448;6.674;2023-05-10T04:31:31;18.80;63.30
33105;DHT22;19476;51.448;6.674;2023-05-10T04:34:09;18.80;62.40
33105;DHT22;19476;51.448;6.674;2023-05-10T04:36:35;18.80;62.80
33105;DHT22;19476;51.448;6.674;2023-05-10T04:42:43;18.80;63.10
33105;DHT22;19476;51.448;6.674;2023-05-10T04:45:10;18.70;63.00
33105;DHT22;19476;51.448;6.674;2023-05-10T04:47:36;18.80;62.70
33105;DHT22;19476;51.448;6.674;2023-05-10T04:50:03;18.80;62.80
33105;DHT22;19476;51.448;6.674;2023-05-10T04:52:29;18.80;63.00
33105;DHT22;19476;51.448;6.674;2023-05-10T04:54:55;18.70;62.90
33105;DHT22;19476;51.448;6.674;2023-05-10T05:00:16;18.70;63.40
33105;DHT22;19476;51.448;6.674;2023-05-10T05:02:45;18.70;63.10
33105;DHT22;19476;51.448;6.674;2023-05-10T05:08:37;18.70;63.80
33105;DHT22;19476;51.448;6.674;2023-05-10T05:11:03;18.70;63.30
33105;DHT22;19476;51.448;6.674;2023-05-10T05:13:29;18.70;63.40
33105;DHT22;19476;51.448;6.674;2023-05-10T05:15:55;18.80;63.40
33105;DHT22;19476;51.448;6.674;2023-05-10T05:18:21;18.80;63.30
33105;DHT22;19476;51.448;6.674;2023-05-10T05:20:47;18.80;63.30
33105;DHT22;19476;51.448;6.674;2023-05-10T05:23:13;18.80;63.40
33105;DHT22;19476;51.448;6.674;2023-05-10T05:25:39;18.80;63.20
33105;DHT22;19476;51.448;6.674;2023-05-10T05:28:08;18.80;63.10
33105;DHT22;19476;51.448;6.674;2023-05-10T05:30:34;18.80;63.10
33105;DHT22;19476;51.448;6.674;2023-05-10T05:33:00;18.80;63.00
33105;DHT22;19476;51.448;6.674;2023-05-10T05:35:29;18.80;62.90
33105;DHT22;19476;51.448;6.674;2023-05-10T05:38:59;18.70;62.70
33105;DHT22;19476;51.448;6.674;2023-05-10T05:41:26;18.70;62.70
33105;DHT22;19476;51.448;6.674;2023-05-10T05:44:04;18.60;62.90
33105;DHT22;19476;51.448;6.674;2023-05-10T05:46:30;18.60;63.00
33105;DHT22;19476;51.448;6.674;2023-05-10T05:49:25;18.60;62.90
33105;DHT22;19476;51.448;6.674;2023-05-10T05:54:58;18.50;63.30
33105;DHT22;19476;51.448;6.674;2023-05-10T05:57:28;18.50;63.10
33105;DHT22;19476;51.448;6.674;2023-05-10T05:59:54;18.50;63.20
33105;DHT22;19476;51.448;6.674;2023-05-10T06:09:26;18.40;63.90
33105;DHT22;19476;51.448;6.674;2023-05-10T06:11:53;18.40;63.30
33105;DHT22;19476;51.448;6.674;2023-05-10T06:14:28;18.40;63.40
33105;DHT22;19476;51.448;6.674;2023-05-10T06:17:03;18.40;64.10
33105;DHT22;19476;51.448;6.674;2023-05-10T06:19:30;18.40;63.80
33105;DHT22;19476;51.448;6.674;2023-05-10T06:21:56;18.40;63.50
33105;DHT22;19476;51.448;6.674;2023-05-10T06:28:28;18.50;64.00
33105;DHT22;19476;51.448;6.674;2023-05-10T06:31:14;18.50;64.00
33105;DHT22;19476;51.448;6.674;2023-05-10T06:33:41;18.50;63.50
33105;DHT22;19476;51.448;6.674;2023-05-10T06:36:34;18.50;63.50
33105;DHT22;19476;51.448;6.674;2023-05-10T06:39:39;18.50;64.00
33105;DHT22;19476;51.448;6.674;2023-05-10T06:42:05;18.50;64.30
33105;DHT22;19476;51.448;6.674;2023-05-10T06:44:31;18.50;63.80
33105;DHT22;19476;51.448;6.674;2023-05-10T06:46:58;18.60;63.80
33105;DHT22;19476;51.448;6.674;2023-05-10T06:49:27;18.60;63.70
33105;DHT22;19476;51.448;6.674;2023-05-10T06:51:53;18.60;63.70
33105;DHT22;19476;51.448;6.674;2023-05-10T06:54:30;18.60;63.60
33105;DHT22;19476;51.448;6.674;2023-05-10T06:57:18;18.60;64.20
33105;DHT22;19476;51.448;6.674;2023-05-10T07:03:20;18.60;64.00
33105;DHT22;19476;51.448;6.674;2023-05-10T07:06:19;18.70;63.60
33105;DHT22;19476;51.448;6.674;2023-05-10T07:09:24;18.70;64.10
33105;DHT22;19476;51.448;6.674;2023-05-10T07:15:09;18.70;64.10
33105;DHT22;19476;51.448;6.674;2023-05-10T07:17:37;18.60;63.50
33105;DHT22;19476;51.448;6.674;2023-05-10T07:20:22;18.70;63.80
33105;DHT22;19476;51.448;6.674;2023-05-10T07:22:48;18.70;64.90
33105;DHT22;19476;51.448;6.674;2023-05-10T07:25:17;18.70;63.90
33105;DHT22;19476;51.448;6.674;2023-05-10T07:28:08;18.70;64.10
33105;DHT22;19476;51.448;6.674;2023-05-10T07:31:27;18.70;64.40
33105;DHT22;19476;51.448;6.674;2023-05-10T07:33:58;18.70;64.20
33105;DHT22;19476;51.448;6.674;2023-05-10T07:36:25;18.70;64.00
33105;DHT22;19476;51.448;6.674;2023-05-10T07:38:52;18.80;64.00
33105;DHT22;19476;51.448;6.674;2023-05-10T07:41:33;18.80;64.00
33105;DHT22;19476;51.448;6.674;2023-05-10T07:44:02;18.80;63.90
33105;DHT22;19476;51.448;6.674;2023-05-10T07:46:48;18.90;63.80
33105;DHT22;19476;51.448;6.674;2023-05-10T07:49:15;18.90;63.80
33105;DHT22;19476;51.448;6.674;2023-05-10T07:51:44;18.90;63.70
33105;DHT22;19476;51.448;6.674;2023-05-10T07:54:10;18.90;63.90
33105;DHT22;19476;51.448;6.674;2023-05-10T07:57:04;19.00;63.80
33105;DHT22;19476;51.448;6.674;2023-05-10T07:59:43;19.00;63.90
33105;DHT22;19476;51.448;6.674;2023-05-10T08:02:10;19.00;63.50
33105;DHT22;19476;51.448;6.674;2023-05-10T08:04:36;19.00;63.20
33105;DHT22;19476;51.448;6.674;2023-05-10T08:07:05;19.10;62.80
33105;DHT22;19476;51.448;6.674;2023-05-10T08:09:30;19.00;62.70
33105;DHT22;19476;51.448;6.674;2023-05-10T08:12:05;19.00;62.70
33105;DHT22;19476;51.448;6.674;2023-05-10T08:14:31;19.00;62.80
33105;DHT22;19476;51.448;6.674;2023-05-10T08:16:57;19.10;62.60
33105;DHT22;19476;51.448;6.674;2023-05-10T08:19:26;19.10;62.60
33105;DHT22;19476;51.448;6.674;2023-05-10T08:21:52;19.30;62.70
33105;DHT22;19476;51.448;6.674;2023-05-10T08:24:18;19.20;62.80
33105;DHT22;19476;51.448;6.674;2023-05-10T08:26:44;19.20;62.40
33105;DHT22;19476;51.448;6.674;2023-05-10T08:29:10;19.30;62.50
33105;DHT22;19476;51.448;6.674;2023-05-10T08:31:36;19.30;62.60
33105;DHT22;19476;51.448;6.674;2023-05-10T08:34:01;19.40;62.50
33105;DHT22;19476;51.448;6.674;2023-05-10T08:36:27;19.40;62.30
33105;DHT22;19476;51.448;6.674;2023-05-10T08:38:54;19.50;61.80
33105;DHT22;19476;51.448;6.674;2023-05-10T08:41:20;19.50;61.60
33105;DHT22;19476;51.448;6.674;2023-05-10T08:43:47;19.60;61.40
33105;DHT22;19476;51.448;6.674;2023-05-10T08:46:17;19.60;60.80
33105;DHT22;19476;51.448;6.674;2023-05-10T08:48:48;19.60;60.70
33105;DHT22;19476;51.448;6.674;2023-05-10T08:51:15;19.60;60.20
33105;DHT22;19476;51.448;6.674;2023-05-10T08:53:44;19.60;59.80
33105;DHT22;19476;51.448;6.674;2023-05-10T08:56:10;19.60;59.70
33105;DHT22;19476;51.448;6.674;2023-05-10T08:58:36;19.60;59.60
33105;DHT22;19476;51.448;6.674;2023-05-10T09:01:04;19.60;59.50
33105;DHT22;19476;51.448;6.674;2023-05-10T09:03:31;19.60;58.80
33105;DHT22;19476;51.448;6.674;2023-05-10T09:05:57;19.60;58.70
33105;DHT22;19476;51.448;6.674;2023-05-10T09:08:24;19.60;58.30
33105;DHT22;19476;51.448;6.674;2023-05-10T09:10:56;19.60;58.20
33105;DHT22;19476;51.448;6.674;2023-05-10T09:13:23;19.60;58.10
33105;DHT22;19476;51.448;6.674;2023-05-10T09:15:50;19.60;57.80
33105;DHT22;19476;51.448;6.674;2023-05-10T09:18:20;19.60;57.60
33105;DHT22;19476;51.448;6.674;2023-05-10T09:20:46;19.60;57.10
33105;DHT22;19476;51.448;6.674;2023-05-10T09:23:11;19.50;57.40
33105;DHT22;19476;51.448;6.674;2023-05-10T09:25:37;19.60;57.50
33105;DHT22;19476;51.448;6.674;2023-05-10T09:28:08;19.50;57.80
33105;DHT22;19476;51.448;6.674;2023-05-10T09:30:35;19.60;57.80
33105;DHT22;19476;51.448;6.674;2023-05-10T09:33:01;19.60;58.20
33105;DHT22;19476;51.448;6.674;2023-05-10T09:35:28;19.50;58.10
33105;DHT22;19476;51.448;6.674;2023-05-10T09:37:57;19.60;58.10
33105;DHT22;19476;51.448;6.674;2023-05-10T09:40:27;19.60;58.20
33105;DHT22;19476;51.448;6.674;2023-05-10T09:43:02;19.70;57.80
33105;DHT22;19476;51.448;6.674;2023-05-10T09:45:33;19.60;57.70
33105;DHT22;19476;51.448;6.674;2023-05-10T09:48:01;19.70;57.80
33105;DHT22;19476;51.448;6.674;2023-05-10T09:50:28;19.60;57.70
33105;DHT22;19476;51.448;6.674;2023-05-10T09:52:59;19.60;57.90
33105;DHT22;19476;51.448;6.674;2023-05-10T09:55:42;19.60;58.10
33105;DHT22;19476;51.448;6.674;2023-05-10T09:58:14;19.50;57.80
33105;DHT22;19476;51.448;6.674;2023-05-10T10:00:42;19.50;58.00
33105;DHT22;19476;51.448;6.674;2023-05-10T10:03:19;19.50;58.20
33105;DHT22;19476;51.448;6.674;2023-05-10T10:05:47;19.40;58.00
33105;DHT22;19476;51.448;6.674;2023-05-10T10:08:14;19.40;58.30
33105;DHT22;19476;51.448;6.674;2023-05-10T10:10:41;19.40;58.40
33105;DHT22;19476;51.448;6.674;2023-05-10T10:13:07;19.40;58.40
33105;DHT22;19476;51.448;6.674;2023-05-10T10:15:34;19.40;58.40
33105;DHT22;19476;51.448;6.674;2023-05-10T10:18:01;19.30;59.10
33105;DHT22;19476;51.448;6.674;2023-05-10T10:20:29;19.30;58.70
33105;DHT22;19476;51.448;6.674;2023-05-10T10:22:55;19.30;58.90
33105;DHT22;19476;51.448;6.674;2023-05-10T10:25:21;19.30;59.20
33105;DHT22;19476;51.448;6.674;2023-05-10T10:27:58;19.30;59.40
33105;DHT22;19476;51.448;6.674;2023-05-10T10:30:43;19.30;59.50
33105;DHT22;19476;51.448;6.674;2023-05-10T10:33:39;19.30;59.50
33105;DHT22;19476;51.448;6.674;2023-05-10T10:36:06;19.30;58.90
33105;DHT22;19476;51.448;6.674;2023-05-10T10:41:33;19.30;59.00
33105;DHT22;19476;51.448;6.674;2023-05-10T10:52:43;19.40;59.10
33105;DHT22;19476;51.448;6.674;2023-05-10T10:57:56;19.40;59.30
33105;DHT22;19476;51.448;6.674;2023-05-10T11:00:33;19.40;59.30
33105;DHT22;19476;51.448;6.674;2023-05-10T11:03:13;19.40;59.50
33105;DHT22;19476;51.448;6.674;2023-05-10T11:05:42;19.50;59.50
33105;DHT22;19476;51.448;6.674;2023-05-10T11:08:31;19.60;59.50
33105;DHT22;19476;51.448;6.674;2023-05-10T11:16:42;19.70;58.60
33105;DHT22;19476;51.448;6.674;2023-05-10T11:19:13;19.80;58.50
33105;DHT22;19476;51.448;6.674;2023-05-10T11:21:51;19.80;58.50
33105;DHT22;19476;51.448;6.674;2023-05-10T11:24:19;19.80;58.00
33105;DHT22;19476;51.448;6.674;2023-05-10T11:26:45;19.80;58.20
33105;DHT22;19476;51.448;6.674;2023-05-10T11:29:13;19.80;58.20
33105;DHT22;19476;51.448;6.674;2023-05-10T11:31:46;19.90;57.90
33105;DHT22;19476;51.448;6.674;2023-05-10T11:36:56;19.90;57.80
33105;DHT22;19476;51.448;6.674;2023-05-10T11:39:29;19.90;57.80
33105;DHT22;19476;51.448;6.674;2023-05-10T11:41:55;19.90;58.00
33105;DHT22;19476;51.448;6.674;2023-05-10T11:44:21;19.90;58.00
33105;DHT22;19476;51.448;6.674;2023-05-10T11:46:47;19.90;57.10
33105;DHT22;19476;51.448;6.674;2023-05-10T11:49:14;19.90;57.10
33105;DHT22;19476;51.448;6.674;2023-05-10T11:51:40;19.80;57.10
33105;DHT22;19476;51.448;6.674;2023-05-10T11:54:10;19.80;57.40
33105;DHT22;19476;51.448;6.674;2023-05-10T11:56:40;19.80;57.20
33105;DHT22;19476;51.448;6.674;2023-05-10T11:59:06;19.80;57.20
33105;DHT22;19476;51.448;6.674;2023-05-10T12:01:33;19.80;58.00
33105;DHT22;19476;51.448;6.674;2023-05-10T12:04:00;19.80;57.50
33105;DHT22;19476;51.448;6.674;2023-05-10T12:06:31;19.90;57.20
33105;DHT22;19476;51.448;6.674;2023-05-10T12:08:58;19.80;56.70
33105;DHT22;19476;51.448;6.674;2023-05-10T12:11:25;19.90;56.70
33105;DHT22;19476;51.448;6.674;2023-05-10T12:13:52;19.90;56.60
33105;DHT22;19476;51.448;6.674;2023-05-10T12:16:21;19.70;56.10
33105;DHT22;19476;51.448;6.674;2023-05-10T12:18:51;19.90;56.00
33105;DHT22;19476;51.448;6.674;2023-05-10T12:21:18;19.90;56.20
33105;DHT22;19476;51.448;6.674;2023-05-10T12:23:49;20.00;56.50
33105;DHT22;19476;51.448;6.674;2023-05-10T12:26:16;20.10;56.50
33105;DHT22;19476;51.448;6.674;2023-05-10T12:28:42;20.10;56.10
33105;DHT22;19476;51.448;6.674;2023-05-10T12:31:08;20.20;55.90
33105;DHT22;19476;51.448;6.674;2023-05-10T12:33:41;20.30;55.60
33105;DHT22;19476;51.448;6.674;2023-05-10T12:36:09;20.40;55.20
33105;DHT22;19476;51.448;6.674;2023-05-10T12:38:37;20.50;55.00
33105;DHT22;19476;51.448;6.674;2023-05-10T12:41:08;20.60;54.90
33105;DHT22;19476;51.448;6.674;2023-05-10T12:43:35;20.70;54.30
33105;DHT22;19476;51.448;6.674;2023-05-10T12:46:15;20.80;54.60
33105;DHT22;19476;51.448;6.674;2023-05-10T12:48:43;20.90;53.80
33105;DHT22;19476;51.448;6.674;2023-05-10T12:51:10;21.00;53.80
33105;DHT22;19476;51.448;6.674;2023-05-10T12:53:38;21.10;53.80
33105;DHT22;19476;51.448;6.674;2023-05-10T12:56:38;21.20;54.20
33105;DHT22;19476;51.448;6.674;2023-05-10T13:02:35;21.60;53.00
33105;DHT22;19476;51.448;6.674;2023-05-10T14:12:31;23.50;46.80
33105;DHT22;19476;51.448;6.674;2023-05-10T14:14:57;23.60;46.10
33105;DHT22;19476;51.448;6.674;2023-05-10T14:17:23;23.70;46.80
33105;DHT22;19476;51.448;6.674;2023-05-10T14:19:49;23.80;46.30
33105;DHT22;19476;51.448;6.674;2023-05-10T14:22:15;23.90;46.20
33105;DHT22;19476;51.448;6.674;2023-05-10T14:24:42;24.00;46.30
33105;DHT22;19476;51.448;6.674;2023-05-10T14:27:12;24.10;45.70
33105;DHT22;19476;51.448;6.674;2023-05-10T14:29:38;24.20;45.50
33105;DHT22;19476;51.448;6.674;2023-05-10T14:32:04;24.20;45.40
33105;DHT22;19476;51.448;6.674;2023-05-10T14:34:30;24.20;45.40
33105;DHT22;19476;51.448;6.674;2023-05-10T14:36:56;24.30;45.40
33105;DHT22;19476;51.448;6.674;2023-05-10T14:39:22;24.30;45.60
33105;DHT22;19476;51.448;6.674;2023-05-10T14:41:48;24.20;45.50
33105;DHT22;19476;51.448;6.674;2023-05-10T14:44:14;24.20;45.50
33105;DHT22;19476;51.448;6.674;2023-05-10T14:46:41;24.20;45.70
33105;DHT22;19476;51.448;6.674;2023-05-10T14:49:07;24.20;45.90
33105;DHT22;19476;51.448;6.674;2023-05-10T14:51:33;24.10;45.50
33105;DHT22;19476;51.448;6.674;2023-05-10T14:53:59;24.10;45.50
33105;DHT22;19476;51.448;6.674;2023-05-10T14:56:25;24.10;45.60
33105;DHT22;19476;51.448;6.674;2023-05-10T14:58:54;24.10;45.60
33105;DHT22;19476;51.448;6.674;2023-05-10T15:01:21;24.10;45.60
33105;DHT22;19476;51.448;6.674;2023-05-10T15:03:47;24.10;45.40
33105;DHT22;19476;51.448;6.674;2023-05-10T15:06:14;24.00;45.40
33105;DHT22;19476;51.448;6.674;2023-05-10T15:08:42;24.00;45.00
33105;DHT22;19476;51.448;6.674;2023-05-10T15:34:28;22.60;46.30
33105;DHT22;19476;51.448;6.674;2023-05-10T15:36:54;22.50;47.20
33105;DHT22;19476;51.448;6.674;2023-05-10T15:39:20;22.30;48.10
33105;DHT22;19476;51.448;6.674;2023-05-10T15:41:51;22.10;49.10
33105;DHT22;19476;51.448;6.674;2023-05-10T15:44:17;22.00;50.20
33105;DHT22;19476;51.448;6.674;2023-05-10T15:46:44;21.80;50.20
33105;DHT22;19476;51.448;6.674;2023-05-10T15:49:10;21.60;50.90
33105;DHT22;19476;51.448;6.674;2023-05-10T15:51:36;21.40;51.40
33105;DHT22;19476;51.448;6.674;2023-05-10T15:54:02;21.20;52.00
33105;DHT22;19476;51.448;6.674;2023-05-10T15:56:28;21.10;52.30
33105;DHT22;19476;51.448;6.674;2023-05-10T15:58:55;21.00;52.90
33105;DHT22;19476;51.448;6.674;2023-05-10T16:01:21;20.90;53.10
33105;DHT22;19476;51.448;6.674;2023-05-10T16:03:47;20.80;53.60
33105;DHT22;19476;51.448;6.674;2023-05-10T16:06:12;20.70;53.80
33105;DHT22;19476;51.448;6.674;2023-05-10T16:08:38;20.70;54.20
33105;DHT22;19476;51.448;6.674;2023-05-10T16:11:04;20.60;54.40
33105;DHT22;19476;51.448;6.674;2023-05-10T16:13:30;20.50;54.60
33105;DHT22;19476;51.448;6.674;2023-05-10T16:15:56;20.50;54.80
33105;DHT22;19476;51.448;6.674;2023-05-10T16:18:22;20.40;55.10
33105;DHT22;19476;51.448;6.674;2023-05-10T16:20:48;20.40;55.50
33105;DHT22;19476;51.448;6.674;2023-05-10T16:23:14;20.40;55.70
33105;DHT22;19476;51.448;6.674;2023-05-10T16:25:40;20.30;55.90
33105;DHT22;19476;51.448;6.674;2023-05-10T16:28:06;20.30;56.20
33105;DHT22;19476;51.448;6.674;2023-05-10T16:30:32;20.30;56.30
33105;DHT22;19476;51.448;6.674;2023-05-10T16:32:59;20.30;56.40
33105;DHT22;19476;51.448;6.674;2023-05-10T16:35:25;20.30;56.60
33105;DHT22;19476;51.448;6.674;2023-05-10T16:37:51;20.30;56.60
33105;DHT22;19476;51.448;6.674;2023-05-10T16:40:18;20.30;57.00
33105;DHT22;19476;51.448;6.674;2023-05-10T16:42:44;20.30;57.00
33105;DHT22;19476;51.448;6.674;2023-05-10T16:45:11;20.30;56.80
33105;DHT22;19476;51.448;6.674;2023-05-10T16:47:38;20.30;56.70
33105;DHT22;19476;51.448;6.674;2023-05-10T16:50:06;20.30;56.80
33105;DHT22;19476;51.448;6.674;2023-05-10T16:52:33;20.30;56.80
33105;DHT22;19476;51.448;6.674;2023-05-10T16:55:00;20.30;56.60
33105;DHT22;19476;51.448;6.674;2023-05-10T16:57:26;20.30;56.30
33105;DHT22;19476;51.448;6.674;2023-05-10T16:59:52;20.30;56.40
33105;DHT22;19476;51.448;6.674;2023-05-10T17:02:19;20.20;56.20
33105;DHT22;19476;51.448;6.674;2023-05-10T17:04:45;20.20;56.30
33105;DHT22;19476;51.448;6.674;2023-05-10T17:07:12;20.20;56.40
33105;DHT22;19476;51.448;6.674;2023-05-10T17:09:38;20.20;56.40
33105;DHT22;19476;51.448;6.674;2023-05-10T17:12:04;20.20;56.40
33105;DHT22;19476;51.448;6.674;2023-05-10T17:14:30;20.20;56.50
33105;DHT22;19476;51.448;6.674;2023-05-10T17:16:57;20.20;56.60
33105;DHT22;19476;51.448;6.674;2023-05-10T17:19:22;20.20;56.30
33105;DHT22;19476;51.448;6.674;2023-05-10T17:21:48;20.20;56.20
33105;DHT22;19476;51.448;6.674;2023-05-10T17:24:14;20.10;55.90
33105;DHT22;19476;51.448;6.674;2023-05-10T17:26:41;20.10;55.90
33105;DHT22;19476;51.448;6.674;2023-05-10T17:29:07;20.00;56.10
33105;DHT22;19476;51.448;6.674;2023-05-10T17:31:33;20.00;56.10
33105;DHT22;19476;51.448;6.674;2023-05-10T17:33:59;19.90;56.30
33105;DHT22;19476;51.448;6.674;2023-05-10T17:36:25;19.90;56.60
33105;DHT22;19476;51.448;6.674;2023-05-10T17:38:50;19.90;56.70
33105;DHT22;19476;51.448;6.674;2023-05-10T17:41:17;19.90;56.70
33105;DHT22;19476;51.448;6.674;2023-05-10T17:43:43;19.90;56.80
33105;DHT22;19476;51.448;6.674;2023-05-10T17:46:09;19.90;56.90
33105;DHT22;19476;51.448;6.674;2023-05-10T17:48:39;19.80;57.00
33105;DHT22;19476;51.448;6.674;2023-05-10T17:51:08;19.90;57.10
33105;DHT22;19476;51.448;6.674;2023-05-10T17:53:39;19.90;57.10
33105;DHT22;19476;51.448;6.674;2023-05-10T17:56:06;19.90;57.20
33105;DHT22;19476;51.448;6.674;2023-05-10T17:58:32;19.90;57.20
33105;DHT22;19476;51.448;6.674;2023-05-10T18:00:58;20.00;57.30
33105;DHT22;19476;51.448;6.674;2023-05-10T18:03:24;20.00;57.30
33105;DHT22;19476;51.448;6.674;2023-05-10T18:05:50;20.00;57.20
33105;DHT22;19476;51.448;6.674;2023-05-10T18:08:16;20.00;57.30
33105;DHT22;19476;51.448;6.674;2023-05-10T18:10:49;20.00;57.10
33105;DHT22;19476;51.448;6.674;2023-05-10T18:13:15;20.00;57.30
33105;DHT22;19476;51.448;6.674;2023-05-10T18:15:42;20.00;57.40
33105;DHT22;19476;51.448;6.674;2023-05-10T18:18:09;20.00;57.60
33105;DHT22;19476;51.448;6.674;2023-05-10T18:20:35;20.00;57.70
33105;DHT22;19476;51.448;6.674;2023-05-10T18:23:01;20.00;57.80
33105;DHT22;19476;51.448;6.674;2023-05-10T18:25:27;20.00;57.80
33105;DHT22;19476;51.448;6.674;2023-05-10T18:27:54;20.00;57.70
33105;DHT22;19476;51.448;6.674;2023-05-10T18:30:19;20.00;57.90
33105;DHT22;19476;51.448;6.674;2023-05-10T18:32:46;20.00;58.00
33105;DHT22;19476;51.448;6.674;2023-05-10T18:35:12;20.00;58.00
33105;DHT22;19476;51.448;6.674;2023-05-10T18:37:38;20.00;58.10